sensor_id;sensor_type;location;lat;lon;timestamp;P1;durP1;ratioP1;P2;durP2;ratioP2
55290;SDS011;41155;39.768;2.712;2023-04-24T00:00:16;6.57;;;4.90;;
55290;SDS011;41155;39.768;2.712;2023-04-24T00:02:43;7.68;;;5.10;;
55290;SDS011;41155;39.768;2.712;2023-04-24T00:05:16;7.07;;;5.38;;
55290;SDS011;41155;39.768;2.712;2023-04-24T00:07:43;12.88;;;6.07;;
55290;SDS011;41155;39.768;2.712;2023-04-24T00:10:10;10.55;;;5.25;;
55290;SDS011;41155;39.768;2.712;2023-04-24T00:12:36;14.52;;;5.40;;
55290;SDS011;41155;39.768;2.712;2023-04-24T00:15:02;7.63;;;5.60;;
55290;SDS011;41155;39.768;2.712;2023-04-24T00:17:28;11.38;;;6.25;;
55290;SDS011;41155;39.768;2.712;2023-04-24T00:19:53;14.45;;;5.72;;
55290;SDS011;41155;39.768;2.712;2023-04-24T00:22:26;8.95;;;6.00;;
55290;SDS011;41155;39.768;2.712;2023-04-24T00:24:52;15.02;;;5.90;;
55290;SDS011;41155;39.768;2.712;2023-04-24T00:27:18;10.75;;;5.95;;
55290;SDS011;41155;39.768;2.712;2023-04-24T00:29:43;11.65;;;6.03;;
55290;SDS011;41155;39.768;2.712;2023-04-24T00:32:09;7.15;;;5.30;;
55290;SDS011;41155;39.768;2.712;2023-04-24T00:34:34;6.22;;;5.38;;
55290;SDS011;41155;39.768;2.712;2023-04-24T00:37:00;9.52;;;5.82;;
55290;SDS011;41155;39.768;2.712;2023-04-24T00:39:26;7.78;;;5.90;;
55290;SDS011;41155;39.768;2.712;2023-04-24T00:41:51;8.75;;;5.75;;
55290;SDS011;41155;39.768;2.712;2023-04-24T00:44:18;13.63;;;5.47;;
55290;SDS011;41155;39.768;2.712;2023-04-24T00:46:43;9.05;;;5.90;;
55290;SDS011;41155;39.768;2.712;2023-04-24T00:49:09;6.75;;;5.50;;
55290;SDS011;41155;39.768;2.712;2023-04-24T00:51:35;12.77;;;5.50;;
55290;SDS011;41155;39.768;2.712;2023-04-24T00:54:01;8.75;;;5.72;;
55290;SDS011;41155;39.768;2.712;2023-04-24T00:56:27;5.82;;;5.30;;
55290;SDS011;41155;39.768;2.712;2023-04-24T00:58:53;9.55;;;5.65;;
55290;SDS011;41155;39.768;2.712;2023-04-24T01:01:19;7.22;;;5.43;;
55290;SDS011;41155;39.768;2.712;2023-04-24T01:03:51;7.38;;;5.20;;
55290;SDS011;41155;39.768;2.712;2023-04-24T01:06:18;10.02;;;5.45;;
55290;SDS011;41155;39.768;2.712;2023-04-24T01:08:43;9.65;;;5.72;;
55290;SDS011;41155;39.768;2.712;2023-04-24T01:11:11;12.35;;;5.30;;
55290;SDS011;41155;39.768;2.712;2023-04-24T01:13:37;10.75;;;5.82;;
55290;SDS011;41155;39.768;2.712;2023-04-24T01:16:02;9.90;;;5.30;;
55290;SDS011;41155;39.768;2.712;2023-04-24T01:18:28;7.13;;;5.50;;
55290;SDS011;41155;39.768;2.712;2023-04-24T01:20:56;10.32;;;5.65;;
55290;SDS011;41155;39.768;2.712;2023-04-24T01:23:23;11.52;;;5.75;;
55290;SDS011;41155;39.768;2.712;2023-04-24T01:25:49;18.42;;;6.47;;
55290;SDS011;41155;39.768;2.712;2023-04-24T01:28:15;7.80;;;5.82;;
55290;SDS011;41155;39.768;2.712;2023-04-24T01:30:41;10.20;;;5.20;;
55290;SDS011;41155;39.768;2.712;2023-04-24T01:33:07;10.88;;;6.20;;
55290;SDS011;41155;39.768;2.712;2023-04-24T01:35:33;13.23;;;6.50;;
55290;SDS011;41155;39.768;2.712;2023-04-24T01:38:01;7.60;;;5.57;;
55290;SDS011;41155;39.768;2.712;2023-04-24T01:40:26;11.10;;;6.45;;
55290;SDS011;41155;39.768;2.712;2023-04-24T01:42:52;9.95;;;6.88;;
55290;SDS011;41155;39.768;2.712;2023-04-24T01:45:17;9.25;;;6.15;;
55290;SDS011;41155;39.768;2.712;2023-04-24T01:47:43;11.75;;;5.72;;
55290;SDS011;41155;39.768;2.712;2023-04-24T01:50:09;10.73;;;6.40;;
55290;SDS011;41155;39.768;2.712;2023-04-24T01:52:35;16.60;;;6.25;;
55290;SDS011;41155;39.768;2.712;2023-04-24T01:55:01;18.33;;;6.97;;
55290;SDS011;41155;39.768;2.712;2023-04-24T01:57:30;18.27;;;6.40;;
55290;SDS011;41155;39.768;2.712;2023-04-24T01:59:57;10.68;;;6.57;;
55290;SDS011;41155;39.768;2.712;2023-04-24T02:02:23;12.52;;;6.38;;
55290;SDS011;41155;39.768;2.712;2023-04-24T02:04:55;12.57;;;6.80;;
55290;SDS011;41155;39.768;2.712;2023-04-24T02:07:20;11.30;;;7.13;;
55290;SDS011;41155;39.768;2.712;2023-04-24T02:09:46;11.85;;;6.25;;
55290;SDS011;41155;39.768;2.712;2023-04-24T02:12:11;9.75;;;6.35;;
55290;SDS011;41155;39.768;2.712;2023-04-24T02:14:37;10.82;;;6.72;;
55290;SDS011;41155;39.768;2.712;2023-04-24T02:17:02;12.73;;;7.10;;
55290;SDS011;41155;39.768;2.712;2023-04-24T02:19:28;10.82;;;6.70;;
55290;SDS011;41155;39.768;2.712;2023-04-24T02:21:54;8.95;;;6.43;;
55290;SDS011;41155;39.768;2.712;2023-04-24T02:24:19;11.77;;;6.40;;
55290;SDS011;41155;39.768;2.712;2023-04-24T02:26:45;10.15;;;6.57;;
55290;SDS011;41155;39.768;2.712;2023-04-24T02:29:10;11.55;;;7.20;;
55290;SDS011;41155;39.768;2.712;2023-04-24T02:31:35;14.98;;;6.53;;
55290;SDS011;41155;39.768;2.712;2023-04-24T02:34:01;17.70;;;7.22;;
55290;SDS011;41155;39.768;2.712;2023-04-24T02:36:26;12.35;;;6.90;;
55290;SDS011;41155;39.768;2.712;2023-04-24T02:38:52;11.50;;;6.57;;
55290;SDS011;41155;39.768;2.712;2023-04-24T02:41:17;11.77;;;7.05;;
55290;SDS011;41155;39.768;2.712;2023-04-24T02:43:43;12.75;;;6.93;;
55290;SDS011;41155;39.768;2.712;2023-04-24T02:46:08;13.48;;;7.13;;
55290;SDS011;41155;39.768;2.712;2023-04-24T02:48:34;11.95;;;6.45;;
55290;SDS011;41155;39.768;2.712;2023-04-24T02:50:59;10.02;;;6.20;;
55290;SDS011;41155;39.768;2.712;2023-04-24T02:53:25;14.15;;;6.20;;
55290;SDS011;41155;39.768;2.712;2023-04-24T02:55:50;17.92;;;7.30;;
55290;SDS011;41155;39.768;2.712;2023-04-24T02:58:16;7.32;;;6.35;;
55290;SDS011;41155;39.768;2.712;2023-04-24T03:00:42;8.93;;;6.15;;
55290;SDS011;41155;39.768;2.712;2023-04-24T03:03:08;13.93;;;6.18;;
55290;SDS011;41155;39.768;2.712;2023-04-24T03:05:34;8.68;;;5.55;;
55290;SDS011;41155;39.768;2.712;2023-04-24T03:07:59;14.25;;;6.65;;
55290;SDS011;41155;39.768;2.712;2023-04-24T03:10:25;9.05;;;6.80;;
55290;SDS011;41155;39.768;2.712;2023-04-24T03:12:50;8.10;;;5.97;;
55290;SDS011;41155;39.768;2.712;2023-04-24T03:15:16;10.02;;;6.40;;
55290;SDS011;41155;39.768;2.712;2023-04-24T03:17:41;12.98;;;8.30;;
55290;SDS011;41155;39.768;2.712;2023-04-24T03:20:08;10.18;;;6.25;;
55290;SDS011;41155;39.768;2.712;2023-04-24T03:22:34;9.68;;;6.60;;
55290;SDS011;41155;39.768;2.712;2023-04-24T03:25:00;13.50;;;6.75;;
55290;SDS011;41155;39.768;2.712;2023-04-24T03:27:26;8.20;;;6.63;;
55290;SDS011;41155;39.768;2.712;2023-04-24T03:29:51;13.55;;;7.57;;
55290;SDS011;41155;39.768;2.712;2023-04-24T03:32:20;15.00;;;6.93;;
55290;SDS011;41155;39.768;2.712;2023-04-24T03:34:48;16.38;;;7.20;;
55290;SDS011;41155;39.768;2.712;2023-04-24T03:37:15;11.38;;;6.78;;
55290;SDS011;41155;39.768;2.712;2023-04-24T03:39:41;9.43;;;6.32;;
55290;SDS011;41155;39.768;2.712;2023-04-24T03:42:06;11.20;;;7.00;;
55290;SDS011;41155;39.768;2.712;2023-04-24T03:44:33;8.43;;;6.13;;
55290;SDS011;41155;39.768;2.712;2023-04-24T03:46:59;10.32;;;6.78;;
55290;SDS011;41155;39.768;2.712;2023-04-24T03:49:25;16.30;;;7.32;;
55290;SDS011;41155;39.768;2.712;2023-04-24T03:51:51;10.35;;;6.78;;
55290;SDS011;41155;39.768;2.712;2023-04-24T03:54:17;8.50;;;6.05;;
55290;SDS011;41155;39.768;2.712;2023-04-24T03:56:45;8.13;;;6.28;;
55290;SDS011;41155;39.768;2.712;2023-04-24T03:59:11;11.18;;;6.47;;
55290;SDS011;41155;39.768;2.712;2023-04-24T04:01:37;11.52;;;7.15;;
55290;SDS011;41155;39.768;2.712;2023-04-24T04:04:02;9.90;;;6.75;;
55290;SDS011;41155;39.768;2.712;2023-04-24T04:06:29;10.20;;;6.88;;
55290;SDS011;41155;39.768;2.712;2023-04-24T04:08:55;16.15;;;7.25;;
55290;SDS011;41155;39.768;2.712;2023-04-24T04:11:21;11.80;;;6.80;;
55290;SDS011;41155;39.768;2.712;2023-04-24T04:13:47;11.13;;;7.38;;
55290;SDS011;41155;39.768;2.712;2023-04-24T04:16:13;12.50;;;8.02;;
55290;SDS011;41155;39.768;2.712;2023-04-24T04:18:38;15.23;;;7.75;;
55290;SDS011;41155;39.768;2.712;2023-04-24T04:21:04;16.58;;;6.90;;
55290;SDS011;41155;39.768;2.712;2023-04-24T04:23:29;16.80;;;7.93;;
55290;SDS011;41155;39.768;2.712;2023-04-24T04:25:55;10.70;;;7.70;;
55290;SDS011;41155;39.768;2.712;2023-04-24T04:28:21;12.00;;;7.28;;
55290;SDS011;41155;39.768;2.712;2023-04-24T04:30:46;19.92;;;8.10;;
55290;SDS011;41155;39.768;2.712;2023-04-24T04:33:12;18.20;;;7.63;;
55290;SDS011;41155;39.768;2.712;2023-04-24T04:35:39;15.43;;;7.20;;
55290;SDS011;41155;39.768;2.712;2023-04-24T04:38:06;13.68;;;7.18;;
55290;SDS011;41155;39.768;2.712;2023-04-24T04:40:33;9.90;;;7.30;;
55290;SDS011;41155;39.768;2.712;2023-04-24T04:42:58;13.75;;;7.80;;
55290;SDS011;41155;39.768;2.712;2023-04-24T04:45:24;14.07;;;8.25;;
55290;SDS011;41155;39.768;2.712;2023-04-24T04:47:52;14.00;;;7.22;;
55290;SDS011;41155;39.768;2.712;2023-04-24T04:50:18;12.13;;;7.93;;
55290;SDS011;41155;39.768;2.712;2023-04-24T04:52:44;13.70;;;8.48;;
55290;SDS011;41155;39.768;2.712;2023-04-24T04:55:10;11.73;;;8.30;;
55290;SDS011;41155;39.768;2.712;2023-04-24T04:57:36;18.70;;;9.43;;
55290;SDS011;41155;39.768;2.712;2023-04-24T05:00:01;20.20;;;8.30;;
55290;SDS011;41155;39.768;2.712;2023-04-24T05:02:27;14.95;;;8.13;;
55290;SDS011;41155;39.768;2.712;2023-04-24T05:04:52;14.80;;;8.50;;
55290;SDS011;41155;39.768;2.712;2023-04-24T05:07:18;12.75;;;9.25;;
55290;SDS011;41155;39.768;2.712;2023-04-24T05:09:43;20.08;;;8.70;;
55290;SDS011;41155;39.768;2.712;2023-04-24T05:12:09;15.73;;;7.85;;
55290;SDS011;41155;39.768;2.712;2023-04-24T05:14:35;13.27;;;8.10;;
55290;SDS011;41155;39.768;2.712;2023-04-24T05:17:00;23.10;;;8.45;;
55290;SDS011;41155;39.768;2.712;2023-04-24T05:19:26;21.70;;;7.68;;
55290;SDS011;41155;39.768;2.712;2023-04-24T05:21:51;21.10;;;9.38;;
55290;SDS011;41155;39.768;2.712;2023-04-24T05:24:17;17.58;;;8.45;;
55290;SDS011;41155;39.768;2.712;2023-04-24T05:26:42;21.40;;;8.43;;
55290;SDS011;41155;39.768;2.712;2023-04-24T05:29:08;11.98;;;7.55;;
55290;SDS011;41155;39.768;2.712;2023-04-24T05:31:33;21.77;;;9.02;;
55290;SDS011;41155;39.768;2.712;2023-04-24T05:33:59;23.48;;;8.82;;
55290;SDS011;41155;39.768;2.712;2023-04-24T05:36:24;62.28;;;41.28;;
55290;SDS011;41155;39.768;2.712;2023-04-24T05:38:50;35.67;;;11.85;;
55290;SDS011;41155;39.768;2.712;2023-04-24T05:41:15;17.08;;;9.02;;
55290;SDS011;41155;39.768;2.712;2023-04-24T05:43:41;17.55;;;9.18;;
55290;SDS011;41155;39.768;2.712;2023-04-24T05:46:06;27.63;;;9.88;;
55290;SDS011;41155;39.768;2.712;2023-04-24T05:48:31;21.35;;;9.95;;
55290;SDS011;41155;39.768;2.712;2023-04-24T05:50:57;26.45;;;10.45;;
55290;SDS011;41155;39.768;2.712;2023-04-24T05:53:22;20.05;;;9.20;;
55290;SDS011;41155;39.768;2.712;2023-04-24T05:55:48;25.38;;;10.30;;
55290;SDS011;41155;39.768;2.712;2023-04-24T05:58:13;26.25;;;8.98;;
55290;SDS011;41155;39.768;2.712;2023-04-24T06:00:39;22.02;;;9.38;;
55290;SDS011;41155;39.768;2.712;2023-04-24T06:03:07;27.30;;;8.80;;
55290;SDS011;41155;39.768;2.712;2023-04-24T06:05:33;18.13;;;8.93;;
55290;SDS011;41155;39.768;2.712;2023-04-24T06:07:59;20.52;;;10.38;;
55290;SDS011;41155;39.768;2.712;2023-04-24T06:10:25;24.70;;;9.35;;
55290;SDS011;41155;39.768;2.712;2023-04-24T06:12:50;35.97;;;9.07;;
55290;SDS011;41155;39.768;2.712;2023-04-24T06:15:16;19.80;;;10.57;;
55290;SDS011;41155;39.768;2.712;2023-04-24T06:17:41;27.38;;;15.38;;
55290;SDS011;41155;39.768;2.712;2023-04-24T06:20:07;47.30;;;31.15;;
55290;SDS011;41155;39.768;2.712;2023-04-24T06:22:33;105.70;;;69.82;;
55290;SDS011;41155;39.768;2.712;2023-04-24T06:24:59;110.55;;;72.30;;
55290;SDS011;41155;39.768;2.712;2023-04-24T06:27:25;103.93;;;64.63;;
55290;SDS011;41155;39.768;2.712;2023-04-24T06:29:51;91.63;;;61.22;;
55290;SDS011;41155;39.768;2.712;2023-04-24T06:32:20;73.50;;;43.45;;
55290;SDS011;41155;39.768;2.712;2023-04-24T06:34:50;55.97;;;38.03;;
55290;SDS011;41155;39.768;2.712;2023-04-24T06:37:17;53.53;;;35.40;;
55290;SDS011;41155;39.768;2.712;2023-04-24T06:39:44;55.97;;;37.35;;
55290;SDS011;41155;39.768;2.712;2023-04-24T06:42:09;58.63;;;40.45;;
55290;SDS011;41155;39.768;2.712;2023-04-24T06:44:35;56.45;;;37.88;;
55290;SDS011;41155;39.768;2.712;2023-04-24T06:47:09;45.90;;;31.20;;
55290;SDS011;41155;39.768;2.712;2023-04-24T06:49:35;26.60;;;21.50;;
55290;SDS011;41155;39.768;2.712;2023-04-24T06:52:02;44.15;;;20.42;;
55290;SDS011;41155;39.768;2.712;2023-04-24T06:54:28;18.73;;;13.40;;
55290;SDS011;41155;39.768;2.712;2023-04-24T06:56:54;26.67;;;14.57;;
55290;SDS011;41155;39.768;2.712;2023-04-24T06:59:20;32.90;;;14.45;;
55290;SDS011;41155;39.768;2.712;2023-04-24T07:01:46;22.75;;;14.50;;
55290;SDS011;41155;39.768;2.712;2023-04-24T07:04:11;29.45;;;13.95;;
55290;SDS011;41155;39.768;2.712;2023-04-24T07:06:38;40.08;;;12.27;;
55290;SDS011;41155;39.768;2.712;2023-04-24T07:09:04;34.13;;;10.35;;
55290;SDS011;41155;39.768;2.712;2023-04-24T07:11:29;24.33;;;10.15;;
55290;SDS011;41155;39.768;2.712;2023-04-24T07:13:55;20.00;;;9.38;;
55290;SDS011;41155;39.768;2.712;2023-04-24T07:16:20;22.23;;;7.32;;
55290;SDS011;41155;39.768;2.712;2023-04-24T07:18:46;17.25;;;7.13;;
55290;SDS011;41155;39.768;2.712;2023-04-24T07:21:12;13.27;;;6.78;;
55290;SDS011;41155;39.768;2.712;2023-04-24T07:23:37;17.70;;;6.03;;
55290;SDS011;41155;39.768;2.712;2023-04-24T07:26:03;17.48;;;6.68;;
55290;SDS011;41155;39.768;2.712;2023-04-24T07:28:29;25.13;;;6.97;;
55290;SDS011;41155;39.768;2.712;2023-04-24T07:30:57;19.00;;;8.55;;
55290;SDS011;41155;39.768;2.712;2023-04-24T07:33:24;21.88;;;11.70;;
55290;SDS011;41155;39.768;2.712;2023-04-24T07:35:50;25.60;;;14.13;;
55290;SDS011;41155;39.768;2.712;2023-04-24T07:38:16;37.90;;;21.02;;
55290;SDS011;41155;39.768;2.712;2023-04-24T07:40:45;33.80;;;17.85;;
55290;SDS011;41155;39.768;2.712;2023-04-24T07:43:10;34.65;;;16.10;;
55290;SDS011;41155;39.768;2.712;2023-04-24T07:45:36;37.60;;;16.88;;
55290;SDS011;41155;39.768;2.712;2023-04-24T07:48:02;36.58;;;16.40;;
55290;SDS011;41155;39.768;2.712;2023-04-24T07:50:28;31.05;;;17.15;;
55290;SDS011;41155;39.768;2.712;2023-04-24T07:52:54;24.10;;;15.95;;
55290;SDS011;41155;39.768;2.712;2023-04-24T07:55:20;25.98;;;15.88;;
55290;SDS011;41155;39.768;2.712;2023-04-24T07:57:45;31.80;;;14.27;;
55290;SDS011;41155;39.768;2.712;2023-04-24T08:00:11;21.20;;;11.95;;
55290;SDS011;41155;39.768;2.712;2023-04-24T08:02:37;20.95;;;9.93;;
55290;SDS011;41155;39.768;2.712;2023-04-24T08:05:02;16.02;;;8.60;;
55290;SDS011;41155;39.768;2.712;2023-04-24T08:07:28;15.88;;;7.07;;
55290;SDS011;41155;39.768;2.712;2023-04-24T08:09:54;20.35;;;10.70;;
55290;SDS011;41155;39.768;2.712;2023-04-24T08:12:20;54.00;;;24.05;;
55290;SDS011;41155;39.768;2.712;2023-04-24T08:14:45;42.22;;;19.83;;
55290;SDS011;41155;39.768;2.712;2023-04-24T08:17:14;21.15;;;9.27;;
55290;SDS011;41155;39.768;2.712;2023-04-24T08:19:40;19.55;;;8.07;;
55290;SDS011;41155;39.768;2.712;2023-04-24T08:22:08;19.83;;;8.07;;
55290;SDS011;41155;39.768;2.712;2023-04-24T08:24:33;13.13;;;6.78;;
55290;SDS011;41155;39.768;2.712;2023-04-24T08:26:59;15.15;;;7.57;;
55290;SDS011;41155;39.768;2.712;2023-04-24T08:29:24;20.60;;;8.52;;
55290;SDS011;41155;39.768;2.712;2023-04-24T08:31:51;17.55;;;9.07;;
55290;SDS011;41155;39.768;2.712;2023-04-24T08:34:19;22.58;;;8.90;;
55290;SDS011;41155;39.768;2.712;2023-04-24T08:36:45;26.83;;;8.65;;
55290;SDS011;41155;39.768;2.712;2023-04-24T08:39:10;20.20;;;8.57;;
55290;SDS011;41155;39.768;2.712;2023-04-24T08:41:36;18.25;;;7.82;;
55290;SDS011;41155;39.768;2.712;2023-04-24T08:44:02;21.13;;;8.50;;
55290;SDS011;41155;39.768;2.712;2023-04-24T08:46:29;16.05;;;8.65;;
55290;SDS011;41155;39.768;2.712;2023-04-24T08:48:55;16.00;;;8.20;;
55290;SDS011;41155;39.768;2.712;2023-04-24T08:51:21;21.30;;;8.23;;
55290;SDS011;41155;39.768;2.712;2023-04-24T08:53:48;23.65;;;8.70;;
55290;SDS011;41155;39.768;2.712;2023-04-24T08:56:16;23.80;;;8.43;;
55290;SDS011;41155;39.768;2.712;2023-04-24T08:58:42;21.00;;;9.23;;
55290;SDS011;41155;39.768;2.712;2023-04-24T09:01:09;20.70;;;7.93;;
55290;SDS011;41155;39.768;2.712;2023-04-24T09:03:34;19.35;;;7.78;;
55290;SDS011;41155;39.768;2.712;2023-04-24T09:06:00;20.02;;;7.78;;
55290;SDS011;41155;39.768;2.712;2023-04-24T09:08:27;17.15;;;7.40;;
55290;SDS011;41155;39.768;2.712;2023-04-24T09:10:53;22.70;;;8.32;;
55290;SDS011;41155;39.768;2.712;2023-04-24T09:13:19;70.57;;;11.27;;
55290;SDS011;41155;39.768;2.712;2023-04-24T09:15:45;72.43;;;13.40;;
55290;SDS011;41155;39.768;2.712;2023-04-24T09:18:11;116.55;;;19.90;;
55290;SDS011;41155;39.768;2.712;2023-04-24T09:23:32;18.65;;;7.13;;
55290;SDS011;41155;39.768;2.712;2023-04-24T09:25:59;24.77;;;7.72;;
55290;SDS011;41155;39.768;2.712;2023-04-24T09:31:02;16.30;;;6.43;;
55290;SDS011;41155;39.768;2.712;2023-04-24T09:33:32;20.70;;;7.47;;
55290;SDS011;41155;39.768;2.712;2023-04-24T09:35:58;16.10;;;7.38;;
55290;SDS011;41155;39.768;2.712;2023-04-24T09:38:34;22.25;;;11.45;;
55290;SDS011;41155;39.768;2.712;2023-04-24T09:41:02;71.55;;;43.65;;
55290;SDS011;41155;39.768;2.712;2023-04-24T09:43:31;41.75;;;21.38;;
55290;SDS011;41155;39.768;2.712;2023-04-24T09:45:57;41.05;;;18.40;;
55290;SDS011;41155;39.768;2.712;2023-04-24T09:48:33;24.48;;;11.25;;
55290;SDS011;41155;39.768;2.712;2023-04-24T09:51:01;49.00;;;31.95;;
55290;SDS011;41155;39.768;2.712;2023-04-24T09:53:28;36.33;;;23.63;;
55290;SDS011;41155;39.768;2.712;2023-04-24T09:55:54;21.30;;;12.48;;
55290;SDS011;41155;39.768;2.712;2023-04-24T09:58:26;16.35;;;7.90;;
55290;SDS011;41155;39.768;2.712;2023-04-24T10:00:55;15.32;;;6.32;;
55290;SDS011;41155;39.768;2.712;2023-04-24T10:03:24;12.48;;;7.38;;
55290;SDS011;41155;39.768;2.712;2023-04-24T10:05:52;13.23;;;6.40;;
55290;SDS011;41155;39.768;2.712;2023-04-24T10:08:18;15.95;;;6.38;;
55290;SDS011;41155;39.768;2.712;2023-04-24T10:10:44;14.25;;;6.00;;
55290;SDS011;41155;39.768;2.712;2023-04-24T10:13:11;12.65;;;5.25;;
55290;SDS011;41155;39.768;2.712;2023-04-24T10:15:39;14.07;;;5.93;;
55290;SDS011;41155;39.768;2.712;2023-04-24T10:18:06;14.85;;;5.85;;
55290;SDS011;41155;39.768;2.712;2023-04-24T10:20:32;9.45;;;5.50;;
55290;SDS011;41155;39.768;2.712;2023-04-24T10:23:00;12.95;;;6.28;;
55290;SDS011;41155;39.768;2.712;2023-04-24T10:25:27;13.10;;;6.82;;
55290;SDS011;41155;39.768;2.712;2023-04-24T10:27:55;16.00;;;6.30;;
55290;SDS011;41155;39.768;2.712;2023-04-24T10:30:24;18.17;;;7.13;;
55290;SDS011;41155;39.768;2.712;2023-04-24T10:32:52;14.85;;;5.82;;
55290;SDS011;41155;39.768;2.712;2023-04-24T10:35:18;16.13;;;5.45;;
55290;SDS011;41155;39.768;2.712;2023-04-24T10:37:57;15.63;;;5.43;;
55290;SDS011;41155;39.768;2.712;2023-04-24T10:40:35;17.98;;;5.85;;
55290;SDS011;41155;39.768;2.712;2023-04-24T10:43:07;42.25;;;10.40;;
55290;SDS011;41155;39.768;2.712;2023-04-24T10:45:36;27.88;;;10.00;;
55290;SDS011;41155;39.768;2.712;2023-04-24T10:48:05;32.25;;;10.63;;
55290;SDS011;41155;39.768;2.712;2023-04-24T10:50:50;20.77;;;8.15;;
55290;SDS011;41155;39.768;2.712;2023-04-24T10:53:18;36.13;;;10.45;;
55290;SDS011;41155;39.768;2.712;2023-04-24T10:55:58;33.10;;;12.20;;
55290;SDS011;41155;39.768;2.712;2023-04-24T10:58:44;31.67;;;11.85;;
55290;SDS011;41155;39.768;2.712;2023-04-24T11:03:55;20.75;;;8.50;;
55290;SDS011;41155;39.768;2.712;2023-04-24T11:09:05;21.02;;;8.45;;
55290;SDS011;41155;39.768;2.712;2023-04-24T11:11:37;19.20;;;6.72;;
55290;SDS011;41155;39.768;2.712;2023-04-24T11:14:09;30.63;;;10.32;;
55290;SDS011;41155;39.768;2.712;2023-04-24T11:16:35;18.98;;;7.40;;
55290;SDS011;41155;39.768;2.712;2023-04-24T11:19:08;28.10;;;8.55;;
55290;SDS011;41155;39.768;2.712;2023-04-24T11:21:47;14.30;;;6.75;;
55290;SDS011;41155;39.768;2.712;2023-04-24T11:27:16;29.40;;;8.85;;
55290;SDS011;41155;39.768;2.712;2023-04-24T11:32:30;17.75;;;7.53;;
55290;SDS011;41155;39.768;2.712;2023-04-24T11:35:14;26.02;;;6.80;;
55290;SDS011;41155;39.768;2.712;2023-04-24T11:37:43;27.98;;;7.35;;
55290;SDS011;41155;39.768;2.712;2023-04-24T11:40:14;21.83;;;7.60;;
55290;SDS011;41155;39.768;2.712;2023-04-24T11:42:45;20.58;;;7.57;;
55290;SDS011;41155;39.768;2.712;2023-04-24T11:45:12;19.42;;;5.93;;
55290;SDS011;41155;39.768;2.712;2023-04-24T11:47:39;14.90;;;5.80;;
55290;SDS011;41155;39.768;2.712;2023-04-24T11:50:09;22.17;;;5.97;;
55290;SDS011;41155;39.768;2.712;2023-04-24T11:52:37;14.15;;;5.22;;
55290;SDS011;41155;39.768;2.712;2023-04-24T11:55:03;11.43;;;6.03;;
55290;SDS011;41155;39.768;2.712;2023-04-24T11:57:31;22.95;;;5.60;;
55290;SDS011;41155;39.768;2.712;2023-04-24T12:00:01;11.32;;;5.13;;
55290;SDS011;41155;39.768;2.712;2023-04-24T12:02:28;11.70;;;5.63;;
55290;SDS011;41155;39.768;2.712;2023-04-24T12:04:53;10.93;;;5.70;;
55290;SDS011;41155;39.768;2.712;2023-04-24T12:07:19;14.32;;;6.45;;
55290;SDS011;41155;39.768;2.712;2023-04-24T12:09:47;15.13;;;5.95;;
55290;SDS011;41155;39.768;2.712;2023-04-24T12:12:13;12.10;;;5.32;;
55290;SDS011;41155;39.768;2.712;2023-04-24T12:14:44;10.95;;;5.05;;
55290;SDS011;41155;39.768;2.712;2023-04-24T12:17:29;13.90;;;6.25;;
55290;SDS011;41155;39.768;2.712;2023-04-24T12:19:57;19.40;;;4.80;;
55290;SDS011;41155;39.768;2.712;2023-04-24T12:22:27;11.88;;;5.95;;
55290;SDS011;41155;39.768;2.712;2023-04-24T12:25:01;13.48;;;4.85;;
55290;SDS011;41155;39.768;2.712;2023-04-24T12:27:30;10.93;;;4.93;;
55290;SDS011;41155;39.768;2.712;2023-04-24T12:29:58;17.60;;;5.38;;
55290;SDS011;41155;39.768;2.712;2023-04-24T12:32:25;17.90;;;5.93;;
55290;SDS011;41155;39.768;2.712;2023-04-24T12:34:51;15.20;;;5.28;;
55290;SDS011;41155;39.768;2.712;2023-04-24T12:37:18;18.45;;;5.72;;
55290;SDS011;41155;39.768;2.712;2023-04-24T12:45:13;14.88;;;4.90;;
55290;SDS011;41155;39.768;2.712;2023-04-24T12:47:40;14.52;;;4.85;;
55290;SDS011;41155;39.768;2.712;2023-04-24T12:50:08;22.20;;;5.35;;
55290;SDS011;41155;39.768;2.712;2023-04-24T12:52:37;11.65;;;5.60;;
55290;SDS011;41155;39.768;2.712;2023-04-24T12:55:04;21.00;;;5.95;;
55290;SDS011;41155;39.768;2.712;2023-04-24T12:57:33;23.38;;;5.00;;
55290;SDS011;41155;39.768;2.712;2023-04-24T12:59:59;23.30;;;4.97;;
55290;SDS011;41155;39.768;2.712;2023-04-24T13:02:27;26.55;;;5.95;;
55290;SDS011;41155;39.768;2.712;2023-04-24T13:04:57;17.05;;;5.30;;
55290;SDS011;41155;39.768;2.712;2023-04-24T13:07:24;25.90;;;7.05;;
55290;SDS011;41155;39.768;2.712;2023-04-24T13:09:50;16.50;;;6.28;;
55290;SDS011;41155;39.768;2.712;2023-04-24T13:12:16;22.27;;;4.93;;
55290;SDS011;41155;39.768;2.712;2023-04-24T13:14:41;19.30;;;4.90;;
55290;SDS011;41155;39.768;2.712;2023-04-24T13:17:07;15.93;;;4.30;;
55290;SDS011;41155;39.768;2.712;2023-04-24T13:19:36;15.25;;;5.32;;
55290;SDS011;41155;39.768;2.712;2023-04-24T13:22:02;14.07;;;4.85;;
55290;SDS011;41155;39.768;2.712;2023-04-24T13:24:32;17.67;;;5.68;;
55290;SDS011;41155;39.768;2.712;2023-04-24T13:26:58;24.98;;;6.18;;
55290;SDS011;41155;39.768;2.712;2023-04-24T13:29:25;15.45;;;6.05;;
55290;SDS011;41155;39.768;2.712;2023-04-24T13:31:51;15.35;;;5.85;;
55290;SDS011;41155;39.768;2.712;2023-04-24T13:34:17;15.80;;;6.43;;
55290;SDS011;41155;39.768;2.712;2023-04-24T13:36:42;19.40;;;7.15;;
55290;SDS011;41155;39.768;2.712;2023-04-24T13:39:08;14.80;;;5.45;;
55290;SDS011;41155;39.768;2.712;2023-04-24T13:41:35;20.58;;;6.30;;
55290;SDS011;41155;39.768;2.712;2023-04-24T13:44:01;22.17;;;5.38;;
55290;SDS011;41155;39.768;2.712;2023-04-24T13:46:30;20.58;;;5.28;;
55290;SDS011;41155;39.768;2.712;2023-04-24T13:48:58;12.98;;;4.65;;
55290;SDS011;41155;39.768;2.712;2023-04-24T13:51:25;13.20;;;4.28;;
55290;SDS011;41155;39.768;2.712;2023-04-24T13:53:52;11.55;;;4.35;;
55290;SDS011;41155;39.768;2.712;2023-04-24T13:56:18;13.80;;;4.22;;
55290;SDS011;41155;39.768;2.712;2023-04-24T13:58:44;14.23;;;5.20;;
55290;SDS011;41155;39.768;2.712;2023-04-24T14:01:09;13.30;;;4.38;;
55290;SDS011;41155;39.768;2.712;2023-04-24T14:03:35;16.67;;;8.40;;
55290;SDS011;41155;39.768;2.712;2023-04-24T14:06:02;60.03;;;6.43;;
55290;SDS011;41155;39.768;2.712;2023-04-24T14:08:28;18.50;;;4.97;;
55290;SDS011;41155;39.768;2.712;2023-04-24T14:10:53;11.43;;;4.22;;
55290;SDS011;41155;39.768;2.712;2023-04-24T14:13:18;34.35;;;5.15;;
55290;SDS011;41155;39.768;2.712;2023-04-24T14:15:45;10.65;;;4.18;;
55290;SDS011;41155;39.768;2.712;2023-04-24T14:18:10;14.93;;;4.07;;
55290;SDS011;41155;39.768;2.712;2023-04-24T14:20:36;11.10;;;4.45;;
55290;SDS011;41155;39.768;2.712;2023-04-24T14:23:01;11.52;;;4.43;;
55290;SDS011;41155;39.768;2.712;2023-04-24T14:25:27;14.15;;;5.20;;
55290;SDS011;41155;39.768;2.712;2023-04-24T14:27:53;11.38;;;4.63;;
55290;SDS011;41155;39.768;2.712;2023-04-24T14:30:18;12.98;;;4.57;;
55290;SDS011;41155;39.768;2.712;2023-04-24T14:32:44;11.90;;;4.53;;
55290;SDS011;41155;39.768;2.712;2023-04-24T14:35:10;8.82;;;4.25;;
55290;SDS011;41155;39.768;2.712;2023-04-24T14:37:35;11.82;;;4.00;;
55290;SDS011;41155;39.768;2.712;2023-04-24T14:40:01;11.68;;;4.25;;
55290;SDS011;41155;39.768;2.712;2023-04-24T14:42:28;9.13;;;4.47;;
55290;SDS011;41155;39.768;2.712;2023-04-24T14:44:53;18.95;;;5.50;;
55290;SDS011;41155;39.768;2.712;2023-04-24T14:47:19;15.48;;;5.10;;
55290;SDS011;41155;39.768;2.712;2023-04-24T14:49:46;13.07;;;4.70;;
55290;SDS011;41155;39.768;2.712;2023-04-24T14:52:13;11.05;;;5.40;;